Terminal Aerodrome Forecast
Issued by NWS

Home | Current Version | Previous Version | Text Only | Print | Product List | Glossary On
Versions: 1 2 3 4 5 6 7 8 9 10 11 12 13 14 15 16 17 18 19 20 21 22 23 24 25 26 27
000
FTUS45 KBOI 230920 AAA
TAFMYL
TAF AMD
KMYL 230920Z 2309/2406 20010KT P6SM -RA BKN080 OVC100
     FM231100 VRB04KT P6SM SCT050 OVC080
     FM232100 19012KT P6SM BKN100
     FM240300 25009KT P6SM SCT150=

USA.gov is the U.S. government's official web portal to all federal, state and local government web resources and services.